createdAt,value
2023-03-13T00:00:32.605Z,8.1
2023-03-13T00:01:35.960Z,8.1
2023-03-13T00:02:39.011Z,8.1
2023-03-13T00:03:42.401Z,8.1
2023-03-13T00:04:45.695Z,8.1
2023-03-13T00:05:49.613Z,8.1
2023-03-13T00:06:53.416Z,8.1
2023-03-13T00:07:56.143Z,8.1
2023-03-13T00:08:59.796Z,8.1
2023-03-13T00:10:02.901Z,8.2
2023-03-13T00:11:05.880Z,8.2
2023-03-13T00:12:09.160Z,8.2
2023-03-13T00:13:11.859Z,8.2
2023-03-13T00:14:14.577Z,8.2
2023-03-13T00:15:17.139Z,8.2
2023-03-13T00:16:20.421Z,8.2
2023-03-13T00:17:24.710Z,8.2
2023-03-13T00:18:27.227Z,8.2
2023-03-13T00:19:30.212Z,8.3
2023-03-13T00:20:33.977Z,8.2
2023-03-13T00:21:36.763Z,8.2
2023-03-13T00:22:40.566Z,8.3
2023-03-13T00:23:43.072Z,8.3
2023-03-13T00:24:46.122Z,8.3
2023-03-13T00:25:49.118Z,8.3
2023-03-13T00:26:52.604Z,8.3
2023-03-13T00:27:55.178Z,8.3
2023-03-13T00:28:57.972Z,8.3
2023-03-13T00:30:01.081Z,8.3
2023-03-13T00:31:04.789Z,8.3
2023-03-13T00:32:09.042Z,8.3
2023-03-13T00:33:12.489Z,8.3
2023-03-13T00:34:15.207Z,8.3
2023-03-13T00:35:18.593Z,8.3
2023-03-13T00:36:21.056Z,8.3
2023-03-13T00:37:23.877Z,8.3
2023-03-13T00:38:27.429Z,8.3
2023-03-13T00:39:30.867Z,8.3
2023-03-13T00:40:34.234Z,8.4
2023-03-13T00:41:38.275Z,8.3
2023-03-13T00:42:41.079Z,8.3
2023-03-13T00:43:44.521Z,8.4
2023-03-13T00:44:47.690Z,8.4
2023-03-13T00:45:50.967Z,8.3
2023-03-13T00:46:54.205Z,8.3
2023-03-13T00:47:56.524Z,8.3
2023-03-13T00:49:00.303Z,8.3
2023-03-13T00:50:03.679Z,8.3
2023-03-13T00:51:06.422Z,8.4
2023-03-13T00:52:09.535Z,8.4
2023-03-13T00:53:12.941Z,8.4
2023-03-13T00:54:16.823Z,8.4
2023-03-13T00:55:20.224Z,8.4
2023-03-13T00:56:23.261Z,8.4
2023-03-13T00:57:26.365Z,8.4
2023-03-13T00:58:29.398Z,8.4
2023-03-13T00:59:32.250Z,8.4
2023-03-13T01:00:36.033Z,8.4
2023-03-13T01:01:38.753Z,8.4
2023-03-13T01:02:41.586Z,8.4
2023-03-13T01:03:45.330Z,8.4
2023-03-13T01:04:47.873Z,8.4
2023-03-13T01:05:50.871Z,8.4
2023-03-13T01:06:53.669Z,8.4
2023-03-13T01:07:56.480Z,8.4
2023-03-13T01:09:00.367Z,8.4
2023-03-13T01:10:04.552Z,8.4
2023-03-13T01:11:07.577Z,8.4
2023-03-13T01:12:10.040Z,8.4
2023-03-13T01:13:13.317Z,8.4
2023-03-13T01:14:16.057Z,8.5
2023-03-13T01:15:19.393Z,8.4
2023-03-13T01:16:22.719Z,8.4
2023-03-13T01:17:26.533Z,8.5
2023-03-13T01:18:29.990Z,8.4
2023-03-13T01:19:33.099Z,8.4
2023-03-13T01:20:36.183Z,8.4
2023-03-13T01:21:39.456Z,8.4
2023-03-13T01:22:42.760Z,8.4
2023-03-13T01:23:45.571Z,8.4
2023-03-13T01:24:48.948Z,8.4
2023-03-13T01:25:52.756Z,8.5
2023-03-13T01:26:55.561Z,8.4
2023-03-13T01:27:58.746Z,8.5
2023-03-13T01:29:01.506Z,8.5
2023-03-13T01:30:04.644Z,8.5
2023-03-13T01:31:07.280Z,8.5
2023-03-13T01:32:10.532Z,8.5
2023-03-13T01:33:13.260Z,8.5
2023-03-13T01:34:16.435Z,8.5
2023-03-13T01:35:19.724Z,8.5
2023-03-13T01:36:22.982Z,8.5
2023-03-13T01:37:26.100Z,8.5
2023-03-13T01:38:29.198Z,8.5
2023-03-13T01:39:32.330Z,8.5
2023-03-13T01:40:35.815Z,8.5
2023-03-13T01:41:39.618Z,8.5
2023-03-13T01:42:42.643Z,8.5
2023-03-13T01:43:45.435Z,8.6
2023-03-13T01:44:48.236Z,8.5
2023-03-13T01:45:51.375Z,8.5
2023-03-13T01:46:54.016Z,8.5
2023-03-13T01:47:57.101Z,8.5
2023-03-13T01:48:59.893Z,8.5
2023-03-13T01:50:02.509Z,8.5
2023-03-13T01:51:05.553Z,8.5
2023-03-13T01:52:08.960Z,8.5
2023-03-13T01:53:12.133Z,8.5
2023-03-13T01:54:14.936Z,8.5
2023-03-13T01:55:18.651Z,8.5
2023-03-13T01:56:22.437Z,8.5
2023-03-13T01:57:26.252Z,8.5
2023-03-13T01:58:29.329Z,8.5
2023-03-13T01:59:32.606Z,8.5
2023-03-13T02:00:35.930Z,8.5
2023-03-13T02:01:39.311Z,8.5
2023-03-13T02:02:43.153Z,8.5
2023-03-13T02:03:46.105Z,8.5
2023-03-13T02:04:49.086Z,8.5
2023-03-13T02:05:52.182Z,8.5
2023-03-13T02:06:55.263Z,8.5
2023-03-13T02:07:58.889Z,8.5
2023-03-13T02:09:01.884Z,8.5
2023-03-13T02:10:05.027Z,8.5
2023-03-13T02:11:07.202Z,8.5
2023-03-13T02:12:10.696Z,8.5
2023-03-13T02:13:13.996Z,8.5
2023-03-13T02:14:17.133Z,8.5
2023-03-13T02:15:22.376Z,8.5
2023-03-13T02:16:25.675Z,8.5
2023-03-13T02:17:29.319Z,8.5
2023-03-13T02:18:32.423Z,8.5
2023-03-13T02:19:35.227Z,8.5
2023-03-13T02:20:38.214Z,8.5
2023-03-13T02:21:41.732Z,8.5
2023-03-13T02:22:44.726Z,8.4
2023-03-13T02:23:47.982Z,8.4
2023-03-13T02:24:51.711Z,8.4
2023-03-13T02:25:54.832Z,8.4
2023-03-13T02:26:58.563Z,8.4
2023-03-13T02:28:02.447Z,8.4
2023-03-13T02:29:05.975Z,8.4
2023-03-13T02:30:08.683Z,8.4
2023-03-13T02:31:11.804Z,8.4
2023-03-13T02:32:14.092Z,8.4
2023-03-13T02:33:17.735Z,8.4
2023-03-13T02:34:20.822Z,8.4
2023-03-13T02:35:24.695Z,8.4
2023-03-13T02:36:27.130Z,8.4
2023-03-13T02:37:30.228Z,8.4
2023-03-13T02:38:32.973Z,8.4
2023-03-13T02:39:36.340Z,8.5
2023-03-13T02:40:39.390Z,8.5
2023-03-13T02:41:42.128Z,8.5
2023-03-13T02:42:45.278Z,8.5
2023-03-13T02:43:49.107Z,8.5
2023-03-13T02:44:52.725Z,8.5
2023-03-13T02:45:56.062Z,8.5
2023-03-13T02:46:59.766Z,8.5
2023-03-13T02:48:03.017Z,8.5
2023-03-13T02:49:06.270Z,8.5
2023-03-13T02:50:09.060Z,8.5
2023-03-13T02:51:11.802Z,8.5
2023-03-13T02:52:14.313Z,8.5
2023-03-13T02:53:17.287Z,8.5
2023-03-13T02:54:20.721Z,8.5
2023-03-13T02:55:23.724Z,8.5
2023-03-13T02:56:26.637Z,8.6
2023-03-13T02:57:30.148Z,8.5
2023-03-13T02:58:50.210Z,8.5
2023-03-13T02:59:54.429Z,8.6
2023-03-13T03:00:58.167Z,8.6
2023-03-13T03:02:01.500Z,8.6
2023-03-13T03:03:04.626Z,8.6
2023-03-13T03:04:08.608Z,8.6
2023-03-13T03:05:11.622Z,8.6
2023-03-13T03:06:14.517Z,8.6
2023-03-13T03:07:17.608Z,8.6
2023-03-13T03:08:20.264Z,8.7
2023-03-13T03:09:23.750Z,8.7
2023-03-13T03:10:26.556Z,8.7
2023-03-13T03:11:29.258Z,8.7
2023-03-13T03:12:32.536Z,8.7
2023-03-13T03:13:35.678Z,8.7
2023-03-13T03:14:39.000Z,8.7
2023-03-13T03:15:42.459Z,8.7
2023-03-13T03:16:46.591Z,8.7
2023-03-13T03:17:50.232Z,8.7
2023-03-13T03:18:53.915Z,8.7
2023-03-13T03:19:57.059Z,8.7
2023-03-13T03:20:59.872Z,8.7
2023-03-13T03:22:03.217Z,8.7
2023-03-13T03:23:06.001Z,8.7
2023-03-13T03:24:09.280Z,8.6
2023-03-13T03:25:12.370Z,8.6
2023-03-13T03:26:15.476Z,8.6
2023-03-13T03:27:18.328Z,8.6
2023-03-13T03:28:21.338Z,8.6
2023-03-13T03:29:24.715Z,8.6
2023-03-13T03:30:27.539Z,8.6
2023-03-13T03:31:30.960Z,8.6
2023-03-13T03:32:34.703Z,8.6
2023-03-13T03:33:38.634Z,8.5
2023-03-13T03:34:41.925Z,8.5
2023-03-13T03:35:45.070Z,8.5
2023-03-13T03:36:48.229Z,8.5
2023-03-13T03:37:51.031Z,8.5
2023-03-13T03:38:54.378Z,8.5
2023-03-13T03:39:57.860Z,8.5
2023-03-13T03:41:00.939Z,8.5
2023-03-13T03:42:04.293Z,8.5
2023-03-13T03:43:07.032Z,8.5
2023-03-13T03:44:10.406Z,8.4
2023-03-13T03:45:13.765Z,8.4
2023-03-13T03:46:17.356Z,8.4
2023-03-13T03:47:20.882Z,8.4
2023-03-13T03:48:25.110Z,8.4
2023-03-13T03:49:27.893Z,8.5
2023-03-13T03:50:30.765Z,8.5
2023-03-13T03:51:34.132Z,8.4
2023-03-13T03:52:37.233Z,8.5
2023-03-13T03:53:40.282Z,8.4
2023-03-13T03:54:43.414Z,8.4
2023-03-13T03:55:46.199Z,8.4
2023-03-13T03:56:49.996Z,8.4
2023-03-13T03:57:53.114Z,8.4
2023-03-13T03:58:56.514Z,8.4
2023-03-13T03:59:58.736Z,8.5
2023-03-13T04:01:01.544Z,8.5
2023-03-13T04:02:04.604Z,8.5
2023-03-13T04:03:08.601Z,8.5
2023-03-13T04:04:12.914Z,8.5
2023-03-13T04:05:16.097Z,8.5
2023-03-13T04:06:19.483Z,8.5
2023-03-13T04:07:22.517Z,8.5
2023-03-13T04:08:25.311Z,8.5
2023-03-13T04:09:32.080Z,8.5
2023-03-13T04:10:35.636Z,8.5
2023-03-13T04:11:38.711Z,8.5
2023-03-13T04:12:41.724Z,8.5
2023-03-13T04:13:44.725Z,8.5
2023-03-13T04:14:48.212Z,8.5
2023-03-13T04:15:51.661Z,8.5
2023-03-13T04:16:54.637Z,8.6
2023-03-13T04:17:58.053Z,8.6
2023-03-13T04:19:01.551Z,8.6
2023-03-13T04:20:05.433Z,8.6
2023-03-13T04:21:08.801Z,8.6
2023-03-13T04:22:11.817Z,8.6
2023-03-13T04:23:14.812Z,8.6
2023-03-13T04:24:18.185Z,8.6
2023-03-13T04:25:21.323Z,8.7
2023-03-13T04:26:24.711Z,8.6
2023-03-13T04:27:27.400Z,8.6
2023-03-13T04:28:30.383Z,8.6
2023-03-13T04:29:33.236Z,8.6
2023-03-13T04:30:36.267Z,8.7
2023-03-13T04:31:39.129Z,8.6
2023-03-13T04:32:42.445Z,8.7
2023-03-13T04:33:45.903Z,8.7
2023-03-13T04:34:49.123Z,8.7
2023-03-13T04:35:53.279Z,8.7
2023-03-13T04:36:56.437Z,8.7
2023-03-13T04:37:59.144Z,8.7
2023-03-13T04:39:01.900Z,8.7
2023-03-13T04:40:04.894Z,8.7
2023-03-13T04:41:08.281Z,8.7
2023-03-13T04:42:10.806Z,8.7
2023-03-13T04:43:14.145Z,8.7
2023-03-13T04:44:17.325Z,8.7
2023-03-13T04:45:20.254Z,8.7
2023-03-13T04:46:23.978Z,8.7
2023-03-13T04:47:27.308Z,8.7
2023-03-13T04:48:30.351Z,8.7
2023-03-13T04:49:33.619Z,8.7
2023-03-13T04:50:36.876Z,8.7
2023-03-13T04:51:40.963Z,8.7
2023-03-13T04:52:43.480Z,8.7
2023-03-13T04:53:46.473Z,8.7
2023-03-13T04:54:50.012Z,8.7
2023-03-13T04:55:53.170Z,8.7
2023-03-13T04:56:55.872Z,8.7
2023-03-13T04:57:58.319Z,8.7
2023-03-13T04:59:01.056Z,8.8
2023-03-13T05:00:04.536Z,8.8
2023-03-13T05:01:08.095Z,8.7
2023-03-13T05:02:10.999Z,8.7
2023-03-13T05:03:14.382Z,8.8
2023-03-13T05:04:17.454Z,8.8
2023-03-13T05:05:21.144Z,8.7
2023-03-13T05:06:24.911Z,8.7
2023-03-13T05:07:28.777Z,8.7
2023-03-13T05:08:31.895Z,8.7
2023-03-13T05:09:34.725Z,8.7
2023-03-13T05:10:37.731Z,8.7
2023-03-13T05:11:40.448Z,8.7
2023-03-13T05:12:44.050Z,8.8
2023-03-13T05:13:47.008Z,8.7
2023-03-13T05:14:49.882Z,8.7
2023-03-13T05:15:54.224Z,8.7
2023-03-13T05:16:57.754Z,8.7
2023-03-13T05:18:00.647Z,8.7
2023-03-13T05:19:03.871Z,8.7
2023-03-13T05:20:07.645Z,8.7
2023-03-13T05:21:10.941Z,8.7
2023-03-13T05:22:14.229Z,8.7
2023-03-13T05:23:18.405Z,8.8
2023-03-13T05:24:21.944Z,8.8
2023-03-13T05:25:25.034Z,8.8
2023-03-13T05:26:28.192Z,8.8
2023-03-13T05:27:31.288Z,8.8
2023-03-13T05:28:34.715Z,8.7
2023-03-13T05:29:38.002Z,8.7
2023-03-13T05:30:41.367Z,8.7
2023-03-13T05:31:45.237Z,8.7
2023-03-13T05:32:48.450Z,8.7
2023-03-13T05:33:51.776Z,8.7
2023-03-13T05:34:55.279Z,8.8
2023-03-13T05:35:58.650Z,8.8
2023-03-13T05:37:02.060Z,8.8
2023-03-13T05:38:05.691Z,8.8
2023-03-13T05:39:09.490Z,8.8
2023-03-13T05:40:12.962Z,8.8
2023-03-13T05:41:16.333Z,8.8
2023-03-13T05:42:20.135Z,8.8
2023-03-13T05:43:24.004Z,8.8
2023-03-13T05:44:26.800Z,8.8
2023-03-13T05:45:29.652Z,8.8
2023-03-13T05:46:33.303Z,8.8
2023-03-13T05:47:36.574Z,8.8
2023-03-13T05:48:40.203Z,8.8
2023-03-13T05:49:42.985Z,8.8
2023-03-13T05:50:46.348Z,8.9
2023-03-13T05:51:49.283Z,8.9
2023-03-13T05:52:52.587Z,8.9
2023-03-13T05:53:56.311Z,8.9
2023-03-13T05:55:00.196Z,8.9
2023-03-13T05:56:02.915Z,8.9
2023-03-13T05:57:05.718Z,8.9
2023-03-13T05:58:08.808Z,8.9
2023-03-13T05:59:12.065Z,8.9
2023-03-13T06:00:15.348Z,8.9
2023-03-13T06:01:17.839Z,8.9
2023-03-13T06:02:20.751Z,8.9
2023-03-13T06:03:24.361Z,8.9
2023-03-13T06:04:28.264Z,8.9
2023-03-13T06:05:31.864Z,8.9
2023-03-13T06:06:34.761Z,8.9
2023-03-13T06:07:38.050Z,8.9
2023-03-13T06:08:41.509Z,9
2023-03-13T06:09:45.334Z,9
2023-03-13T06:10:49.125Z,9
2023-03-13T06:11:52.857Z,9
2023-03-13T06:12:55.625Z,9
2023-03-13T06:13:58.735Z,9
2023-03-13T06:15:01.583Z,9
2023-03-13T06:16:05.222Z,9
2023-03-13T06:17:08.431Z,8.9
2023-03-13T06:18:11.791Z,9
2023-03-13T06:19:14.573Z,9
2023-03-13T06:20:18.190Z,9
2023-03-13T06:21:21.788Z,9
2023-03-13T06:22:24.917Z,9
2023-03-13T06:23:28.029Z,9
2023-03-13T06:24:30.884Z,9
2023-03-13T06:25:34.256Z,9
2023-03-13T06:26:38.082Z,9
2023-03-13T06:27:40.995Z,9
2023-03-13T06:28:44.332Z,9.1
2023-03-13T06:29:46.814Z,9.1
2023-03-13T06:30:50.963Z,9.1
2023-03-13T06:31:55.003Z,9.1
2023-03-13T06:32:59.657Z,9.1
2023-03-13T06:34:02.794Z,9.1
2023-03-13T06:35:05.873Z,9.1
2023-03-13T06:36:09.770Z,9.1
2023-03-13T06:37:13.560Z,9.1
2023-03-13T06:38:16.655Z,9.1
2023-03-13T06:39:20.151Z,9.1
2023-03-13T06:40:23.532Z,9.1
2023-03-13T06:41:26.929Z,9.1
2023-03-13T06:42:30.769Z,9.1
2023-03-13T06:43:33.650Z,9.1
2023-03-13T06:44:36.485Z,9.1
2023-03-13T06:45:39.935Z,9.1
2023-03-13T06:46:43.342Z,9.1
2023-03-13T06:47:47.348Z,9.1
2023-03-13T06:48:49.510Z,9.1
2023-03-13T06:49:52.870Z,9.1
2023-03-13T06:50:55.667Z,9.1
2023-03-13T06:51:58.825Z,9.1
2023-03-13T06:53:02.116Z,9.1
2023-03-13T06:54:05.166Z,9.1
2023-03-13T06:55:08.674Z,9.1
2023-03-13T06:56:11.988Z,9.1
2023-03-13T06:57:15.422Z,9.1
2023-03-13T06:58:33.639Z,9.1
2023-03-13T06:59:36.923Z,9.2
2023-03-13T07:00:39.793Z,9.2
2023-03-13T07:01:42.855Z,9.2
2023-03-13T07:02:46.008Z,9.2
2023-03-13T07:03:49.629Z,9.2
2023-03-13T07:04:53.601Z,9.2
2023-03-13T07:05:57.095Z,9.2
2023-03-13T07:06:59.847Z,9.2
2023-03-13T07:08:02.581Z,9.2
2023-03-13T07:09:05.328Z,9.2
2023-03-13T07:10:08.969Z,9.2
2023-03-13T07:11:11.405Z,9.3
2023-03-13T07:12:14.474Z,9.3
2023-03-13T07:13:17.558Z,9.3
2023-03-13T07:14:20.801Z,9.3
2023-03-13T07:15:23.899Z,9.3
2023-03-13T07:16:27.536Z,9.3
2023-03-13T07:17:30.680Z,9.3
2023-03-13T07:18:34.710Z,9.3
2023-03-13T07:19:38.036Z,9.4
2023-03-13T07:20:41.552Z,9.3
2023-03-13T07:21:45.538Z,9.3
2023-03-13T07:22:48.898Z,9.4
2023-03-13T07:23:52.185Z,9.3
2023-03-13T07:24:54.952Z,9.4
2023-03-13T07:25:58.011Z,9.4
2023-03-13T07:27:08.939Z,9.4
2023-03-13T07:28:12.802Z,9.4
2023-03-13T07:29:16.647Z,9.4
2023-03-13T07:30:20.524Z,9.4
2023-03-13T07:31:23.767Z,9.4
2023-03-13T07:32:27.828Z,9.4
2023-03-13T07:33:31.533Z,9.5
2023-03-13T07:34:34.281Z,9.5
2023-03-13T07:35:39.619Z,9.5
2023-03-13T07:36:43.860Z,9.5
2023-03-13T07:37:47.159Z,9.5
2023-03-13T07:38:50.526Z,9.5
2023-03-13T07:39:53.678Z,9.5
2023-03-13T07:40:57.000Z,9.5
2023-03-13T07:42:00.351Z,9.5
2023-03-13T07:43:03.546Z,9.5
2023-03-13T07:44:07.691Z,9.6
2023-03-13T07:45:12.532Z,9.6
2023-03-13T07:46:17.126Z,9.6
2023-03-13T07:47:20.359Z,9.6
2023-03-13T07:48:23.441Z,9.6
2023-03-13T07:49:26.492Z,9.6
2023-03-13T07:50:29.716Z,9.6
2023-03-13T07:51:45.143Z,9.6
2023-03-13T07:52:48.024Z,9.7
2023-03-13T07:53:50.925Z,9.7
2023-03-13T07:54:54.636Z,9.7
2023-03-13T07:55:58.353Z,9.7
2023-03-13T07:57:01.455Z,9.7
2023-03-13T07:58:04.550Z,9.7
2023-03-13T07:59:08.469Z,9.8
2023-03-13T08:00:13.355Z,9.8
2023-03-13T08:01:16.996Z,9.8
2023-03-13T08:02:21.119Z,9.8
2023-03-13T08:03:25.202Z,9.8
2023-03-13T08:04:29.075Z,9.9
2023-03-13T08:05:31.788Z,9.9
2023-03-13T08:06:35.454Z,10
2023-03-13T08:07:39.173Z,9.9
2023-03-13T08:08:42.014Z,9.9
2023-03-13T08:09:45.490Z,10
2023-03-13T08:10:48.860Z,10
2023-03-13T08:11:52.208Z,10
2023-03-13T08:12:55.643Z,10.1
2023-03-13T08:13:59.021Z,10.1
2023-03-13T08:15:02.747Z,10.1
2023-03-13T08:16:06.711Z,10.1
2023-03-13T08:17:11.230Z,10.1
2023-03-13T08:18:15.003Z,10.1
2023-03-13T08:19:18.281Z,10.1
2023-03-13T08:20:22.004Z,10.2
2023-03-13T08:21:24.866Z,10.2
2023-03-13T08:22:27.964Z,10.2
2023-03-13T08:23:30.842Z,10.2
2023-03-13T08:24:34.485Z,10.2
2023-03-13T08:25:38.014Z,10.2
2023-03-13T08:26:41.712Z,10.3
2023-03-13T08:27:45.534Z,10.3
2023-03-13T08:28:49.256Z,10.3
2023-03-13T08:29:52.902Z,10.3
2023-03-13T08:30:55.882Z,10.3
2023-03-13T08:31:59.164Z,10.3
2023-03-13T08:33:02.985Z,10.3
2023-03-13T08:34:11.117Z,10.3
2023-03-13T08:35:13.912Z,10.3
2023-03-13T08:36:16.729Z,10.4
2023-03-13T08:37:20.448Z,10.4
2023-03-13T08:38:23.352Z,10.4
2023-03-13T08:39:26.359Z,10.4
2023-03-13T08:40:29.874Z,10.5
2023-03-13T08:41:33.186Z,10.5
2023-03-13T08:42:36.636Z,10.6
2023-03-13T08:43:40.310Z,10.7
2023-03-13T08:44:43.670Z,10.7
2023-03-13T08:45:46.316Z,10.8
2023-03-13T08:46:50.256Z,10.8
2023-03-13T08:47:53.344Z,10.9
2023-03-13T08:48:57.117Z,10.9
2023-03-13T08:50:00.920Z,11
2023-03-13T08:51:04.091Z,11
2023-03-13T08:52:07.469Z,11
2023-03-13T08:53:11.263Z,11
2023-03-13T08:54:13.812Z,11
2023-03-13T08:55:16.598Z,10.9
2023-03-13T08:56:19.355Z,10.9
2023-03-13T08:57:23.122Z,10.9
2023-03-13T08:58:26.457Z,10.9
2023-03-13T08:59:29.180Z,10.9
2023-03-13T09:00:32.626Z,10.9
2023-03-13T09:01:36.118Z,10.9
2023-03-13T09:02:39.547Z,10.9
2023-03-13T09:03:43.903Z,10.9
2023-03-13T09:04:47.660Z,10.9
2023-03-13T09:05:57.459Z,10.9
2023-03-13T09:07:00.587Z,10.9
2023-03-13T09:08:04.262Z,10.9
2023-03-13T09:09:07.364Z,10.9
2023-03-13T09:10:10.322Z,10.9
2023-03-13T09:11:14.356Z,10.9
2023-03-13T09:12:31.906Z,10.9
2023-03-13T09:13:35.879Z,10.9
2023-03-13T09:14:38.331Z,10.9
2023-03-13T09:15:41.318Z,10.9
2023-03-13T09:16:44.900Z,10.9
2023-03-13T09:17:48.080Z,10.9
2023-03-13T09:18:50.793Z,10.9
2023-03-13T09:20:01.969Z,10.9
2023-03-13T09:21:05.739Z,10.9
2023-03-13T09:22:09.974Z,10.9
2023-03-13T09:23:13.204Z,11
2023-03-13T09:24:16.586Z,11
2023-03-13T09:25:19.793Z,11
2023-03-13T09:26:24.239Z,11
2023-03-13T09:27:28.033Z,11
2023-03-13T09:28:31.388Z,11
2023-03-13T09:29:34.805Z,11
2023-03-13T09:30:37.784Z,11
2023-03-13T09:31:40.986Z,11.1
2023-03-13T09:32:44.677Z,11.1
2023-03-13T09:33:47.739Z,11.1
2023-03-13T09:34:51.440Z,11.1
2023-03-13T09:35:54.870Z,11.1
2023-03-13T09:36:59.195Z,11.1
2023-03-13T09:38:02.007Z,11.2
2023-03-13T09:39:05.017Z,11.2
2023-03-13T09:40:07.736Z,11.2
2023-03-13T09:41:11.374Z,11.2
2023-03-13T09:42:14.591Z,11.2
2023-03-13T09:43:18.668Z,11.2
2023-03-13T09:44:22.374Z,11.2
2023-03-13T09:45:25.289Z,11.3
2023-03-13T09:46:29.253Z,11.3
2023-03-13T09:47:33.132Z,11.3
2023-03-13T09:48:35.937Z,11.3
2023-03-13T09:49:39.071Z,11.4
2023-03-13T09:50:42.223Z,11.4
2023-03-13T09:51:45.645Z,11.4
2023-03-13T09:52:49.612Z,11.4
2023-03-13T09:53:53.025Z,11.4
2023-03-13T09:54:56.043Z,11.5
2023-03-13T09:55:59.599Z,11.5
2023-03-13T09:57:02.075Z,11.6
2023-03-13T09:58:05.110Z,11.6
2023-03-13T09:59:11.349Z,11.7
2023-03-13T10:00:14.159Z,11.8
2023-03-13T10:01:17.680Z,11.8
2023-03-13T10:02:20.577Z,11.9
2023-03-13T10:03:23.966Z,11.9
2023-03-13T10:04:27.877Z,12
2023-03-13T10:05:31.672Z,12
2023-03-13T10:06:34.773Z,12
2023-03-13T10:07:38.553Z,12.1
2023-03-13T10:08:42.637Z,12
2023-03-13T10:09:46.816Z,12.1
2023-03-13T10:10:49.805Z,12.1
2023-03-13T10:11:53.503Z,12.1
2023-03-13T10:12:56.135Z,12.1
2023-03-13T10:13:59.167Z,12.2
2023-03-13T10:15:02.258Z,12.2
2023-03-13T10:16:05.423Z,12.2
2023-03-13T10:17:08.633Z,12.2
2023-03-13T10:18:11.735Z,12.2
2023-03-13T10:19:15.539Z,12.2
2023-03-13T10:20:18.833Z,12.2
2023-03-13T10:21:21.856Z,12.2
2023-03-13T10:22:25.699Z,12.2
2023-03-13T10:23:29.432Z,12.2
2023-03-13T10:24:33.342Z,12.2
2023-03-13T10:25:36.446Z,12.2
2023-03-13T10:26:39.817Z,12.3
2023-03-13T10:27:43.176Z,12.3
2023-03-13T10:28:46.463Z,12.3
2023-03-13T10:29:49.812Z,12.3
2023-03-13T10:30:53.061Z,12.4
2023-03-13T10:31:56.376Z,12.4
2023-03-13T10:32:59.922Z,12.4
2023-03-13T10:34:03.359Z,12.4
2023-03-13T10:35:06.496Z,12.5
2023-03-13T10:36:10.214Z,12.4
2023-03-13T10:37:13.871Z,12.4
2023-03-13T10:38:17.277Z,12.5
2023-03-13T10:39:21.401Z,12.5
2023-03-13T10:40:25.256Z,12.5
2023-03-13T10:41:28.038Z,12.5
2023-03-13T10:42:31.457Z,12.6
2023-03-13T10:43:34.551Z,12.6
2023-03-13T10:44:38.261Z,12.6
2023-03-13T10:45:41.012Z,12.6
2023-03-13T10:46:44.542Z,12.6
2023-03-13T10:47:48.077Z,12.6
2023-03-13T10:48:51.216Z,12.6
2023-03-13T10:49:54.632Z,12.7
2023-03-13T10:50:57.683Z,12.7
2023-03-13T10:52:04.929Z,12.7
2023-03-13T10:53:08.283Z,12.7
2023-03-13T10:54:11.713Z,12.8
2023-03-13T10:55:15.549Z,12.8
2023-03-13T10:56:19.147Z,12.8
2023-03-13T10:57:22.797Z,12.8
2023-03-13T10:58:25.803Z,12.9
2023-03-13T10:59:28.676Z,12.9
2023-03-13T11:00:31.482Z,12.9
2023-03-13T11:01:34.861Z,12.9
2023-03-13T11:02:39.075Z,12.9
2023-03-13T11:03:43.345Z,12.9
2023-03-13T11:04:46.805Z,13
2023-03-13T11:05:50.505Z,13
2023-03-13T11:06:53.837Z,13.1
2023-03-13T11:07:56.692Z,13.1
2023-03-13T11:09:00.134Z,13.1
2023-03-13T11:10:02.932Z,13.1
2023-03-13T11:11:06.806Z,13.2
2023-03-13T11:12:10.710Z,13.2
2023-03-13T11:13:14.187Z,13.2
2023-03-13T11:14:40.811Z,13.2
2023-03-13T11:15:44.351Z,13.3
2023-03-13T11:16:47.854Z,13.3
2023-03-13T11:17:51.385Z,13.3
2023-03-13T11:18:54.507Z,13.3
2023-03-13T11:19:57.868Z,13.3
2023-03-13T11:21:19.138Z,13.4
2023-03-13T11:22:22.691Z,13.4
2023-03-13T11:23:26.048Z,13.4
2023-03-13T11:24:29.248Z,13.5
2023-03-13T11:25:32.297Z,13.5
2023-03-13T11:26:35.526Z,13.5
2023-03-13T11:27:39.888Z,13.5
2023-03-13T11:28:43.650Z,13.6
2023-03-13T11:29:47.520Z,13.7
2023-03-13T11:30:50.824Z,13.7
2023-03-13T11:31:53.750Z,13.8
2023-03-13T11:32:58.099Z,13.9
2023-03-13T11:34:01.820Z,13.9
2023-03-13T11:35:04.828Z,14
2023-03-13T11:36:08.271Z,14.1
2023-03-13T11:37:12.084Z,14.1
2023-03-13T11:38:15.822Z,14.2
2023-03-13T11:39:18.354Z,14.3
2023-03-13T11:40:21.549Z,14.4
2023-03-13T11:41:25.207Z,14.4
2023-03-13T11:42:28.525Z,14.5
2023-03-13T11:43:32.920Z,14.6
2023-03-13T11:44:35.944Z,14.6
2023-03-13T11:45:39.441Z,14.8
2023-03-13T11:46:43.602Z,14.8
2023-03-13T11:47:47.768Z,14.9
2023-03-13T11:48:51.388Z,15
2023-03-13T11:49:55.277Z,15
2023-03-13T11:50:58.610Z,15.1
2023-03-13T11:52:02.224Z,15.1
2023-03-13T11:53:06.255Z,15.1
2023-03-13T11:54:10.015Z,15.2
2023-03-13T11:55:13.348Z,15.2
2023-03-13T11:56:16.826Z,15.2
2023-03-13T11:57:20.324Z,15.3
2023-03-13T11:58:23.677Z,15.4
2023-03-13T11:59:27.521Z,15.4
2023-03-13T12:00:30.613Z,15.5
2023-03-13T12:01:33.273Z,15.6
2023-03-13T12:02:36.867Z,15.7
2023-03-13T12:03:40.467Z,15.7
2023-03-13T12:04:44.101Z,15.8
2023-03-13T12:05:47.481Z,15.8
2023-03-13T12:06:50.505Z,15.9
2023-03-13T12:07:53.885Z,15.9
2023-03-13T12:08:57.318Z,15.9
2023-03-13T12:10:00.316Z,15.9
2023-03-13T12:11:04.093Z,15.9
2023-03-13T12:12:07.487Z,16
2023-03-13T12:13:10.874Z,16
2023-03-13T12:14:14.242Z,16
2023-03-13T12:15:20.229Z,16.1
2023-03-13T12:16:23.180Z,16.1
2023-03-13T12:17:26.329Z,16.2
2023-03-13T12:18:29.407Z,16.2
2023-03-13T12:19:32.504Z,16.3
2023-03-13T12:20:36.242Z,16.3
2023-03-13T12:21:39.358Z,16.4
2023-03-13T12:22:42.233Z,16.5
2023-03-13T12:23:46.581Z,16.5
2023-03-13T12:24:49.929Z,16.6
2023-03-13T12:25:52.916Z,16.6
2023-03-13T12:26:56.860Z,16.6
2023-03-13T12:28:00.395Z,16.6
2023-03-13T12:29:04.099Z,16.6
2023-03-13T12:30:07.475Z,16.6
2023-03-13T12:31:11.166Z,16.5
2023-03-13T12:32:14.418Z,16.5
2023-03-13T12:33:17.386Z,16.5
2023-03-13T12:34:20.798Z,16.4
2023-03-13T12:35:24.128Z,16.4
2023-03-13T12:36:27.760Z,16.4
2023-03-13T12:37:31.122Z,16.4
2023-03-13T12:38:34.248Z,16.3
2023-03-13T12:39:36.956Z,16.3
2023-03-13T12:40:40.217Z,16.4
2023-03-13T12:41:43.693Z,16.3
2023-03-13T12:42:46.273Z,16.4
2023-03-13T12:44:09.810Z,16.3
2023-03-13T12:45:13.690Z,16.4
2023-03-13T12:46:17.657Z,16.4
2023-03-13T12:47:21.981Z,16.5
2023-03-13T12:48:25.249Z,16.5
2023-03-13T12:49:28.338Z,16.6
2023-03-13T12:50:31.571Z,16.6
2023-03-13T12:51:34.408Z,16.7
2023-03-13T12:52:37.777Z,16.8
2023-03-13T12:53:41.031Z,16.8
2023-03-13T12:54:44.867Z,16.9
2023-03-13T12:55:47.782Z,17
2023-03-13T12:56:51.541Z,17
2023-03-13T12:57:55.433Z,17.1
2023-03-13T12:58:59.147Z,17.1
2023-03-13T13:00:02.901Z,17.2
2023-03-13T13:01:07.119Z,17.3
2023-03-13T13:02:11.228Z,17.4
2023-03-13T13:03:14.241Z,17.4
2023-03-13T13:04:17.406Z,17.6
2023-03-13T13:05:21.081Z,17.6
2023-03-13T13:06:24.533Z,17.6
2023-03-13T13:07:27.501Z,17.7
2023-03-13T13:08:30.667Z,17.7
2023-03-13T13:09:33.488Z,17.8
2023-03-13T13:10:36.058Z,17.8
2023-03-13T13:11:39.508Z,17.9
2023-03-13T13:12:42.423Z,17.9
2023-03-13T13:13:45.429Z,17.9
2023-03-13T13:14:48.566Z,18
2023-03-13T13:15:52.698Z,18
2023-03-13T13:16:56.719Z,18.1
2023-03-13T13:18:00.642Z,18.1
2023-03-13T13:19:03.286Z,18.2
2023-03-13T13:20:06.091Z,18.2
2023-03-13T13:21:09.470Z,18.2
2023-03-13T13:22:12.705Z,18.2
2023-03-13T13:23:15.852Z,18.2
2023-03-13T13:24:18.859Z,18.1
2023-03-13T13:25:21.592Z,18.1
2023-03-13T13:26:24.428Z,18
2023-03-13T13:27:28.589Z,18
2023-03-13T13:28:32.209Z,18
2023-03-13T13:29:34.435Z,17.9
2023-03-13T13:30:37.727Z,17.9
2023-03-13T13:31:41.485Z,17.9
2023-03-13T13:32:45.535Z,17.9
2023-03-13T13:33:49.802Z,17.8
2023-03-13T13:34:52.813Z,17.8
2023-03-13T13:35:56.739Z,17.8
2023-03-13T13:37:00.240Z,17.8
2023-03-13T13:38:03.365Z,17.7
2023-03-13T13:39:06.200Z,17.7
2023-03-13T13:40:09.940Z,17.7
2023-03-13T13:41:12.797Z,17.7
2023-03-13T13:42:16.632Z,17.7
2023-03-13T13:43:19.758Z,17.6
2023-03-13T13:44:22.245Z,17.6
2023-03-13T13:45:25.569Z,17.6
2023-03-13T13:46:28.728Z,17.6
2023-03-13T13:47:34.763Z,17.6
2023-03-13T13:48:38.178Z,17.6
2023-03-13T13:49:42.456Z,17.7
2023-03-13T13:50:45.560Z,17.6
2023-03-13T13:51:48.320Z,17.6
2023-03-13T13:52:51.100Z,17.6
2023-03-13T13:53:54.647Z,17.7
2023-03-13T13:54:57.929Z,17.6
2023-03-13T13:56:00.970Z,17.6
2023-03-13T13:57:04.247Z,17.6
2023-03-13T13:58:07.429Z,17.7
2023-03-13T13:59:10.535Z,17.7
2023-03-13T14:00:14.036Z,17.9
2023-03-13T14:01:17.742Z,18
2023-03-13T14:02:20.794Z,18.2
2023-03-13T14:03:23.779Z,18.4
2023-03-13T14:04:27.400Z,18.6
2023-03-13T14:05:31.811Z,18.8
2023-03-13T14:06:34.770Z,19
2023-03-13T14:07:37.939Z,19.1
2023-03-13T14:08:42.163Z,19.2
2023-03-13T14:09:45.243Z,19.2
2023-03-13T14:10:48.533Z,19.2
2023-03-13T14:11:51.867Z,19.2
2023-03-13T14:12:54.913Z,19.2
2023-03-13T14:13:57.929Z,19.2
2023-03-13T14:15:01.098Z,19.2
2023-03-13T14:16:04.995Z,19.2
2023-03-13T14:17:08.836Z,19.2
2023-03-13T14:18:12.079Z,19.2
2023-03-13T14:19:15.244Z,19.3
2023-03-13T14:20:18.246Z,19.3
2023-03-13T14:21:22.839Z,19.3
2023-03-13T14:22:25.577Z,19.3
2023-03-13T14:23:28.714Z,19.3
2023-03-13T14:24:31.637Z,19.3
2023-03-13T14:25:35.038Z,19.3